createdAt,value
2019-06-07T21:25:11.618Z,75.20
2019-06-07T21:27:46.473Z,74.50
2019-06-07T21:30:15.284Z,75.20
2019-06-07T21:32:43.499Z,76.00
2019-06-07T21:35:12.461Z,76.70
2019-06-07T21:37:40.503Z,76.40
2019-06-07T21:40:10.350Z,77.40
2019-06-07T21:42:38.511Z,79.10
2019-06-07T21:45:09.609Z,80.10
2019-06-07T21:47:38.260Z,79.20
2019-06-07T21:50:06.668Z,80.20
2019-06-07T21:52:35.051Z,81.40
2019-06-07T21:55:04.608Z,82.40
2019-06-07T21:57:32.804Z,82.90
2019-06-07T22:00:01.169Z,83.90
2019-06-07T22:02:29.228Z,84.40
2019-06-07T22:04:57.298Z,86.20
2019-06-07T22:07:25.371Z,85.60
2019-06-07T22:10:00.893Z,85.60
2019-06-07T22:12:31.709Z,85.50
2019-06-07T22:15:00.096Z,84.90
2019-06-07T22:17:30.476Z,86.30
2019-06-07T22:19:59.059Z,85.80
2019-06-07T22:22:31.473Z,86.10
2019-06-07T22:24:59.516Z,86.10
2019-06-07T22:27:28.148Z,86.40
2019-06-07T22:30:00.186Z,87.10
2019-06-07T22:32:36.251Z,87.60
2019-06-07T22:35:04.736Z,87.60
2019-06-07T22:37:32.975Z,87.60
2019-06-07T22:40:01.318Z,88.00
2019-06-07T22:42:34.115Z,87.70
2019-06-07T22:45:02.370Z,87.60
2019-06-07T22:47:30.418Z,88.50
2019-06-07T22:49:59.356Z,88.70
2019-06-07T22:52:27.302Z,87.70
2019-06-07T22:54:55.572Z,88.10
2019-06-07T22:57:25.878Z,87.70
2019-06-07T22:59:55.264Z,87.90
2019-06-07T23:02:23.525Z,87.90
2019-06-07T23:04:51.437Z,87.90
2019-06-07T23:07:19.326Z,89.40
2019-06-07T23:09:47.314Z,90.00
2019-06-07T23:12:15.346Z,89.80
2019-06-07T23:14:43.395Z,90.10
2019-06-07T23:17:11.572Z,90.30
2019-06-07T23:19:39.701Z,90.00
2019-06-07T23:22:09.929Z,88.90
2019-06-07T23:24:38.089Z,89.00
2019-06-07T23:27:06.623Z,89.60
2019-06-07T23:29:34.818Z,88.70
2019-06-07T23:32:05.797Z,89.50
2019-06-07T23:34:33.895Z,88.70
2019-06-07T23:37:02.225Z,88.00
2019-06-07T23:39:30.384Z,88.30
2019-06-07T23:41:58.526Z,87.90
2019-06-07T23:44:26.511Z,88.30
2019-06-07T23:47:10.173Z,88.30
2019-06-07T23:49:26.418Z,87.90
2019-06-07T23:51:57.264Z,87.40
2019-06-07T23:54:25.447Z,88.20
2019-06-07T23:56:53.511Z,88.20
2019-06-07T23:59:22.412Z,87.20
